Time;durP1;ratioP1;P1;durP2;ratioP2;P2;SDS_P1;SDS_P2;PMS_P1;PMS_P2;Temp;Humidity;BMP_temperature;BMP_pressure;BME280_temperature;BME280_humidity;BME280_pressure;Samples;Min_cycle;Max_cycle;Signal;HPM_P1;HPM_P2
2023/05/03 00:01:57;;;;;;;3.15;2.30;;;;;;;;;;5023229;28;20041;-40
2023/05/03 00:04:23;;;;;;;6.50;2.25;;;;;;;;;;5022345;28;20749;-44
2023/05/03 00:06:49;;;;;;;2.90;2.00;;;;;;;;;;5023715;28;20045;-41
2023/05/03 00:09:14;;;;;;;3.67;2.15;;;;;;;;;;5020076;28;20667;-46
2023/05/03 00:11:40;;;;;;;9.38;2.42;;;;;;;;;;5021555;28;20065;-42
2023/05/03 00:14:05;;;;;;;2.80;2.00;;;;;;;;;;5022538;28;20036;-48
2023/05/03 00:16:31;;;;;;;2.47;1.92;;;;;;;;;;5020561;28;20037;-45
2023/05/03 00:18:56;;;;;;;6.25;2.50;;;;;;;;;;5017659;28;20041;-40
2023/05/03 00:21:21;;;;;;;4.22;2.50;;;;;;;;;;5022976;28;20037;-40
2023/05/03 00:23:47;;;;;;;2.60;2.17;;;;;;;;;;5022260;28;20087;-44
2023/05/03 00:26:12;;;;;;;2.40;2.20;;;;;;;;;;5024579;28;20533;-47
2023/05/03 00:28:38;;;;;;;2.85;2.10;;;;;;;;;;5023052;28;20422;-41
2023/05/03 00:31:08;;;;;;;5.80;2.40;;;;;;;;;;5021177;28;20038;-42
2023/05/03 00:33:34;;;;;;;2.78;1.85;;;;;;;;;;5021614;28;20112;-41
2023/05/03 00:36:09;;;;;;;4.93;2.60;;;;;;;;;;5021187;28;20493;-44
2023/05/03 00:38:34;;;;;;;2.60;2.40;;;;;;;;;;5018780;28;20904;-41
2023/05/03 00:41:00;;;;;;;2.42;2.00;;;;;;;;;;5023771;28;20116;-45
2023/05/03 00:43:26;;;;;;;3.88;1.95;;;;;;;;;;5020635;28;20077;-40
2023/05/03 00:45:51;;;;;;;4.10;2.10;;;;;;;;;;5021905;28;20041;-46
2023/05/03 00:48:17;;;;;;;8.38;1.80;;;;;;;;;;5022095;28;20036;-43
2023/05/03 00:50:44;;;;;;;2.22;1.98;;;;;;;;;;5020639;28;20563;-42
2023/05/03 00:53:10;;;;;;;2.35;1.85;;;;;;;;;;5025581;28;20053;-40
2023/05/03 00:55:36;;;;;;;1.88;1.77;;;;;;;;;;5022289;28;20041;-40
2023/05/03 00:58:01;;;;;;;4.07;2.00;;;;;;;;;;5022813;28;20060;-44
2023/05/03 01:00:27;;;;;;;8.00;1.95;;;;;;;;;;5018990;28;20538;-45
2023/05/03 01:02:52;;;;;;;2.83;1.88;;;;;;;;;;5019620;28;21918;-43
2023/05/03 01:05:20;;;;;;;3.08;2.22;;;;;;;;;;5021768;28;20033;-47
2023/05/03 01:08:07;;;;;;;6.45;1.80;;;;;;;;;;5022376;28;20045;-43
2023/05/03 01:10:47;;;;;;;1.80;1.70;;;;;;;;;;5021998;28;20566;-46
2023/05/03 01:13:31;;;;;;;2.17;1.90;;;;;;;;;;5021077;28;20083;-43
2023/05/03 01:16:19;;;;;;;1.50;1.40;;;;;;;;;;5017271;28;20066;-43
2023/05/03 01:18:48;;;;;;;5.43;1.52;;;;;;;;;;5020547;28;20478;-48
2023/05/03 01:21:17;;;;;;;6.85;1.77;;;;;;;;;;5020915;28;20034;-46
2023/05/03 01:24:12;;;;;;;1.73;1.63;;;;;;;;;;5022164;28;20057;-45
2023/05/03 01:26:38;;;;;;;3.65;1.63;;;;;;;;;;5022407;28;20046;-45
2023/05/03 01:29:04;;;;;;;2.10;1.90;;;;;;;;;;5021552;28;20022;-45
2023/05/03 01:31:59;;;;;;;5.18;1.98;;;;;;;;;;5027914;28;20030;-42
2023/05/03 01:35:01;;;;;;;2.08;1.90;;;;;;;;;;5025599;28;20045;-42
2023/05/03 01:37:27;;;;;;;2.15;1.98;;;;;;;;;;5026442;28;20045;-45
2023/05/03 01:39:58;;;;;;;2.08;1.73;;;;;;;;;;5027550;28;20037;-44
2023/05/03 01:42:25;;;;;;;3.60;1.60;;;;;;;;;;5026066;28;20038;-40
2023/05/03 01:44:53;;;;;;;2.05;1.60;;;;;;;;;;5025570;28;20474;-44
2023/05/03 01:47:19;;;;;;;1.88;1.65;;;;;;;;;;5028742;28;20095;-46
2023/05/03 01:49:45;;;;;;;3.88;1.83;;;;;;;;;;5029693;28;20159;-44
2023/05/03 01:52:10;;;;;;;2.00;1.80;;;;;;;;;;5030531;28;20124;-47
2023/05/03 01:54:35;;;;;;;1.90;1.80;;;;;;;;;;5028672;28;20030;-49
2023/05/03 01:57:01;;;;;;;1.83;1.70;;;;;;;;;;5030069;28;20137;-45
2023/05/03 01:59:27;;;;;;;1.90;1.70;;;;;;;;;;5027564;28;20121;-41
2023/05/03 02:01:52;;;;;;;1.98;1.80;;;;;;;;;;5029621;28;20566;-50
2023/05/03 02:04:18;;;;;;;7.43;1.85;;;;;;;;;;5028734;28;20048;-46
2023/05/03 02:06:43;;;;;;;2.08;1.77;;;;;;;;;;5028007;28;20056;-44
2023/05/03 02:09:09;;;;;;;1.80;1.70;;;;;;;;;;5028272;28;20087;-45
2023/05/03 02:11:34;;;;;;;8.07;1.80;;;;;;;;;;5029391;28;20060;-42
2023/05/03 02:14:00;;;;;;;2.47;1.80;;;;;;;;;;5026889;28;20032;-48
2023/05/03 02:16:26;;;;;;;4.32;1.88;;;;;;;;;;5026416;28;20579;-44
2023/05/03 02:18:52;;;;;;;5.93;1.70;;;;;;;;;;5029319;28;20417;-48
2023/05/03 02:21:18;;;;;;;1.77;1.67;;;;;;;;;;5029088;28;20045;-46
2023/05/03 02:23:43;;;;;;;2.10;1.90;;;;;;;;;;5028675;28;20078;-42
2023/05/03 02:26:08;;;;;;;2.10;1.77;;;;;;;;;;5027761;28;20517;-44
2023/05/03 02:28:34;;;;;;;4.00;2.17;;;;;;;;;;5027653;28;20033;-42
2023/05/03 02:30:59;;;;;;;2.67;1.75;;;;;;;;;;5023384;28;20042;-41
2023/05/03 02:33:25;;;;;;;7.32;1.80;;;;;;;;;;5027000;28;20060;-43
2023/05/03 02:35:50;;;;;;;2.08;1.85;;;;;;;;;;5027490;28;20540;-40
2023/05/03 02:38:16;;;;;;;3.35;1.65;;;;;;;;;;5027358;28;20033;-45
2023/05/03 02:40:41;;;;;;;2.63;1.90;;;;;;;;;;5027149;28;20402;-44
2023/05/03 02:43:06;;;;;;;3.45;1.75;;;;;;;;;;5018060;28;20398;-44
2023/05/03 02:45:34;;;;;;;4.32;1.92;;;;;;;;;;5026455;28;20041;-42
2023/05/03 02:47:59;;;;;;;2.03;1.63;;;;;;;;;;5025045;28;20029;-42
2023/05/03 02:50:25;;;;;;;5.88;1.63;;;;;;;;;;5021638;28;20497;-43
2023/05/03 02:52:50;;;;;;;5.47;1.73;;;;;;;;;;5024996;28;20049;-45
2023/05/03 02:55:16;;;;;;;2.60;1.60;;;;;;;;;;5026099;28;20042;-45
2023/05/03 02:57:41;;;;;;;3.28;1.60;;;;;;;;;;5021827;28;20169;-44
2023/05/03 03:00:09;;;;;;;2.00;1.90;;;;;;;;;;5024023;28;20029;-44
2023/05/03 03:02:34;;;;;;;1.77;1.67;;;;;;;;;;5025310;28;20033;-46
2023/05/03 03:04:59;;;;;;;2.17;1.92;;;;;;;;;;5025633;28;20163;-45
2023/05/03 03:07:25;;;;;;;6.00;2.10;;;;;;;;;;5026140;28;20050;-44
2023/05/03 03:09:50;;;;;;;3.65;1.90;;;;;;;;;;5022462;28;20501;-46
2023/05/03 03:12:16;;;;;;;2.13;1.90;;;;;;;;;;5023621;28;20029;-42
2023/05/03 03:14:44;;;;;;;2.30;2.00;;;;;;;;;;5022939;28;20021;-40
2023/05/03 03:17:10;;;;;;;3.50;1.88;;;;;;;;;;5020356;28;20406;-39
2023/05/03 03:19:35;;;;;;;2.67;2.03;;;;;;;;;;5024509;28;20025;-43
2023/05/03 03:22:00;;;;;;;2.53;1.65;;;;;;;;;;5022232;28;20041;-41
2023/05/03 03:24:26;;;;;;;5.28;1.83;;;;;;;;;;5022058;28;20437;-44
2023/05/03 03:26:51;;;;;;;3.08;1.77;;;;;;;;;;5023441;28;20036;-39
2023/05/03 03:29:17;;;;;;;5.60;1.65;;;;;;;;;;5024580;28;20030;-46
2023/05/03 03:31:42;;;;;;;3.50;1.80;;;;;;;;;;5020760;28;20640;-43
2023/05/03 03:34:07;;;;;;;1.90;1.80;;;;;;;;;;5024022;28;20083;-42
2023/05/03 03:36:33;;;;;;;2.83;1.60;;;;;;;;;;5024240;28;20096;-45
2023/05/03 03:38:58;;;;;;;1.88;1.70;;;;;;;;;;5023467;28;20022;-41
2023/05/03 03:41:24;;;;;;;2.40;2.20;;;;;;;;;;5025793;28;20041;-42
2023/05/03 03:43:49;;;;;;;2.22;1.75;;;;;;;;;;5022636;28;20509;-39
2023/05/03 03:46:16;;;;;;;4.47;1.90;;;;;;;;;;5021878;28;20034;-41
2023/05/03 03:48:41;;;;;;;3.88;1.63;;;;;;;;;;5024147;28;20072;-42
2023/05/03 03:51:06;;;;;;;13.40;2.53;;;;;;;;;;5023426;28;20069;-43
2023/05/03 03:53:32;;;;;;;2.15;1.90;;;;;;;;;;5025298;28;20658;-41
2023/05/03 03:55:57;;;;;;;2.17;1.98;;;;;;;;;;5021788;28;20718;-40
2023/05/03 03:58:22;;;;;;;6.13;2.33;;;;;;;;;;5023423;28;20103;-43
2023/05/03 04:00:48;;;;;;;3.50;1.80;;;;;;;;;;5024643;28;20104;-40
2023/05/03 04:03:14;;;;;;;3.47;1.80;;;;;;;;;;5024017;28;20026;-41
2023/05/03 04:05:40;;;;;;;2.53;1.90;;;;;;;;;;5024472;28;20090;-42
2023/05/03 04:08:05;;;;;;;2.38;2.10;;;;;;;;;;5024285;28;20033;-40
2023/05/03 04:10:30;;;;;;;2.92;1.67;;;;;;;;;;5023753;28;20076;-40
2023/05/03 04:12:56;;;;;;;5.25;1.98;;;;;;;;;;5022903;28;20477;-40
2023/05/03 04:15:21;;;;;;;1.88;1.77;;;;;;;;;;5023081;28;20064;-42
2023/05/03 04:17:48;;;;;;;2.45;1.92;;;;;;;;;;5023409;28;20889;-43
2023/05/03 04:20:13;;;;;;;2.63;1.83;;;;;;;;;;5023339;28;20398;-47
2023/05/03 04:22:39;;;;;;;2.13;2.00;;;;;;;;;;5016228;28;20040;-44
2023/05/03 04:25:07;;;;;;;2.67;1.90;;;;;;;;;;5021523;28;20785;-40
2023/05/03 04:27:33;;;;;;;3.22;1.90;;;;;;;;;;5020802;28;20048;-41
2023/05/03 04:29:58;;;;;;;4.63;1.80;;;;;;;;;;5020831;28;20044;-41
2023/05/03 04:32:24;;;;;;;6.63;2.03;;;;;;;;;;5021290;28;20061;-43
2023/05/03 04:34:51;;;;;;;4.55;1.73;;;;;;;;;;5019936;28;20030;-42
2023/05/03 04:37:18;;;;;;;2.13;1.88;;;;;;;;;;5018226;28;20107;-45
2023/05/03 04:39:44;;;;;;;3.42;1.70;;;;;;;;;;5022413;28;20033;-42
2023/05/03 04:42:10;;;;;;;3.63;1.67;;;;;;;;;;5017489;28;20037;-40
2023/05/03 04:44:36;;;;;;;2.25;1.73;;;;;;;;;;5024346;28;20441;-42
2023/05/03 04:47:01;;;;;;;7.97;1.80;;;;;;;;;;5020477;28;20074;-41
2023/05/03 04:49:27;;;;;;;1.58;1.40;;;;;;;;;;5025092;28;20462;-41
2023/05/03 04:51:52;;;;;;;3.63;1.60;;;;;;;;;;5020180;28;20060;-40
2023/05/03 04:54:17;;;;;;;2.88;1.40;;;;;;;;;;5020708;28;20044;-41
2023/05/03 04:56:43;;;;;;;1.67;1.58;;;;;;;;;;5018747;28;20077;-43
2023/05/03 04:59:09;;;;;;;3.17;1.50;;;;;;;;;;5021349;28;20033;-41
2023/05/03 05:01:34;;;;;;;2.17;1.65;;;;;;;;;;5022481;28;20036;-41
2023/05/03 05:04:00;;;;;;;3.67;1.50;;;;;;;;;;5019812;28;20037;-41
2023/05/03 05:06:26;;;;;;;4.75;1.40;;;;;;;;;;5018682;28;20383;-41
2023/05/03 05:08:51;;;;;;;2.08;1.50;;;;;;;;;;5019883;28;20025;-41
2023/05/03 05:11:17;;;;;;;4.60;1.70;;;;;;;;;;5020961;28;20157;-45
2023/05/03 05:13:43;;;;;;;1.55;1.45;;;;;;;;;;5019863;28;20026;-45
2023/05/03 05:16:08;;;;;;;3.97;2.22;;;;;;;;;;5020477;28;20037;-41
2023/05/03 05:18:33;;;;;;;2.08;1.88;;;;;;;;;;5020565;28;20464;-41
2023/05/03 05:20:59;;;;;;;7.00;1.63;;;;;;;;;;5017182;28;20053;-45
2023/05/03 05:23:24;;;;;;;6.28;1.50;;;;;;;;;;5024945;28;20022;-46
2023/05/03 05:25:50;;;;;;;3.03;1.70;;;;;;;;;;5018441;28;20076;-42
2023/05/03 05:28:15;;;;;;;8.00;1.80;;;;;;;;;;5017795;28;20037;-44
2023/05/03 05:30:40;;;;;;;4.28;2.03;;;;;;;;;;5019912;28;20159;-41
2023/05/03 05:33:06;;;;;;;2.63;1.70;;;;;;;;;;5023435;28;20029;-42
2023/05/03 05:35:32;;;;;;;3.75;1.65;;;;;;;;;;5018603;28;20386;-41
2023/05/03 05:37:57;;;;;;;3.08;1.60;;;;;;;;;;5023178;28;20038;-40
2023/05/03 05:40:23;;;;;;;3.10;1.60;;;;;;;;;;5014100;28;20021;-44
2023/05/03 05:42:49;;;;;;;6.00;1.77;;;;;;;;;;5021212;28;20059;-42
2023/05/03 05:45:14;;;;;;;2.63;1.40;;;;;;;;;;5020219;28;20394;-43
2023/05/03 05:47:39;;;;;;;7.82;1.77;;;;;;;;;;5017234;28;20105;-41
2023/05/03 05:50:05;;;;;;;13.95;1.98;;;;;;;;;;5019663;28;20033;-42
2023/05/03 05:52:31;;;;;;;4.82;1.60;;;;;;;;;;5020350;28;20041;-41
2023/05/03 05:54:56;;;;;;;1.55;1.45;;;;;;;;;;5022655;28;20037;-42
2023/05/03 05:57:22;;;;;;;1.73;1.52;;;;;;;;;;5016215;28;20046;-43
2023/05/03 05:59:47;;;;;;;2.80;1.50;;;;;;;;;;5022903;28;20042;-44
2023/05/03 06:02:16;;;;;;;2.63;1.15;;;;;;;;;;5020593;28;20037;-41
2023/05/03 06:04:42;;;;;;;1.75;1.40;;;;;;;;;;5022750;28;20038;-41
2023/05/03 06:07:07;;;;;;;1.98;1.40;;;;;;;;;;5021809;28;20045;-41
2023/05/03 06:09:32;;;;;;;2.65;1.30;;;;;;;;;;5020427;28;20061;-41
2023/05/03 06:11:58;;;;;;;2.20;1.30;;;;;;;;;;5019270;28;20041;-42
2023/05/03 06:14:23;;;;;;;3.08;1.23;;;;;;;;;;5020046;28;20036;-41
2023/05/03 06:16:49;;;;;;;1.50;1.40;;;;;;;;;;5022176;28;20053;-42
2023/05/03 06:19:14;;;;;;;1.75;1.15;;;;;;;;;;5022506;28;20025;-41
2023/05/03 06:21:39;;;;;;;2.90;1.35;;;;;;;;;;5019650;28;20165;-45
2023/05/03 06:24:05;;;;;;;4.38;1.13;;;;;;;;;;5027799;28;20029;-41
2023/05/03 06:26:30;;;;;;;6.88;1.80;;;;;;;;;;5024734;28;20044;-44
2023/05/03 06:28:56;;;;;;;2.45;1.30;;;;;;;;;;5026189;28;20026;-43
2023/05/03 06:31:21;;;;;;;1.77;1.33;;;;;;;;;;5025017;28;20030;-41
2023/05/03 06:33:46;;;;;;;1.70;1.23;;;;;;;;;;5022228;28;20133;-48
2023/05/03 06:36:12;;;;;;;5.53;1.35;;;;;;;;;;5024720;28;20043;-44
2023/05/03 06:38:38;;;;;;;2.25;1.10;;;;;;;;;;5023272;28;20072;-44
2023/05/03 06:41:03;;;;;;;3.75;1.48;;;;;;;;;;5025435;28;20045;-44
2023/05/03 06:43:29;;;;;;;2.55;1.25;;;;;;;;;;5021782;28;20529;-42
2023/05/03 06:45:54;;;;;;;2.90;1.30;;;;;;;;;;5024056;28;20514;-43
2023/05/03 06:48:20;;;;;;;1.58;1.27;;;;;;;;;;5026116;28;20040;-52
2023/05/03 06:50:46;;;;;;;8.75;1.50;;;;;;;;;;5025873;28;20041;-44
2023/05/03 06:53:11;;;;;;;5.13;1.30;;;;;;;;;;5023728;28;20909;-51
2023/05/03 06:55:36;;;;;;;1.48;1.10;;;;;;;;;;5025327;28;20394;-40
2023/05/03 06:58:02;;;;;;;1.98;1.30;;;;;;;;;;5023555;28;20045;-46
2023/05/03 07:00:29;;;;;;;1.42;1.15;;;;;;;;;;5023833;28;20056;-43
2023/05/03 07:02:55;;;;;;;3.95;1.33;;;;;;;;;;5021773;28;20026;-44
2023/05/03 07:05:21;;;;;;;4.63;1.17;;;;;;;;;;5021838;28;20030;-41
2023/05/03 07:07:46;;;;;;;1.20;1.20;;;;;;;;;;5026002;28;20500;-41
2023/05/03 07:10:12;;;;;;;1.17;1.17;;;;;;;;;;5023416;28;20036;-41
2023/05/03 07:12:37;;;;;;;2.10;1.38;;;;;;;;;;5025417;28;20112;-42
2023/05/03 07:15:02;;;;;;;2.10;1.10;;;;;;;;;;5022751;28;20032;-40
2023/05/03 07:17:28;;;;;;;1.20;1.20;;;;;;;;;;5022314;28;20208;-42
2023/05/03 07:19:53;;;;;;;2.13;1.13;;;;;;;;;;5020043;28;20030;-44
2023/05/03 07:22:24;;;;;;;2.08;1.15;;;;;;;;;;5019761;28;20528;-41
2023/05/03 07:24:51;;;;;;;2.03;1.15;;;;;;;;;;5024294;28;20026;-43
2023/05/03 07:27:16;;;;;;;2.65;1.20;;;;;;;;;;5025688;28;20045;-42
2023/05/03 07:29:42;;;;;;;2.50;1.73;;;;;;;;;;5023591;28;20454;-44
2023/05/03 07:32:07;;;;;;;1.83;1.40;;;;;;;;;;5022100;28;20076;-42
2023/05/03 07:34:33;;;;;;;1.50;1.17;;;;;;;;;;5024856;28;20044;-43
2023/05/03 07:36:58;;;;;;;4.38;1.20;;;;;;;;;;5023830;28;20566;-42
2023/05/03 07:39:23;;;;;;;2.60;1.40;;;;;;;;;;5023511;28;20128;-41
2023/05/03 07:41:49;;;;;;;0.93;0.93;;;;;;;;;;5023240;28;20446;-41
2023/05/03 07:44:14;;;;;;;2.13;1.30;;;;;;;;;;5025538;28;20087;-41
2023/05/03 07:46:40;;;;;;;4.47;1.33;;;;;;;;;;5025050;28;20033;-42
2023/05/03 07:49:05;;;;;;;2.25;1.30;;;;;;;;;;5020893;28;20678;-44
2023/05/03 07:51:35;;;;;;;3.15;1.70;;;;;;;;;;5021705;28;20077;-41
2023/05/03 07:54:00;;;;;;;9.93;1.60;;;;;;;;;;5022144;28;20444;-44
2023/05/03 07:56:29;;;;;;;3.42;2.35;;;;;;;;;;5021256;28;20037;-43
2023/05/03 07:58:55;;;;;;;6.88;1.63;;;;;;;;;;5027210;28;20025;-41
2023/05/03 08:01:20;;;;;;;7.03;1.52;;;;;;;;;;5021885;28;20041;-43
2023/05/03 08:03:49;;;;;;;10.55;1.73;;;;;;;;;;5022235;28;20037;-47
2023/05/03 08:06:15;;;;;;;5.72;1.73;;;;;;;;;;5021940;28;20036;-45
2023/05/03 08:08:41;;;;;;;3.00;1.80;;;;;;;;;;5023469;28;20025;-41
2023/05/03 08:11:07;;;;;;;6.85;1.50;;;;;;;;;;5023846;28;20098;-42
2023/05/03 08:13:32;;;;;;;5.35;1.17;;;;;;;;;;5025400;28;20033;-43
2023/05/03 08:15:57;;;;;;;4.22;1.13;;;;;;;;;;5023022;28;20120;-42
2023/05/03 08:18:23;;;;;;;4.22;1.40;;;;;;;;;;5023353;28;20028;-42
2023/05/03 08:20:48;;;;;;;5.60;1.10;;;;;;;;;;5020461;28;20054;-41
2023/05/03 08:23:15;;;;;;;4.97;1.50;;;;;;;;;;5023728;28;20537;-41
2023/05/03 08:25:41;;;;;;;9.52;1.63;;;;;;;;;;5022229;28;20072;-47
2023/05/03 08:28:07;;;;;;;2.80;1.77;;;;;;;;;;5021811;28;20090;-42
2023/05/03 08:30:33;;;;;;;10.38;2.00;;;;;;;;;;5026005;28;20132;-43
2023/05/03 08:32:58;;;;;;;3.67;1.80;;;;;;;;;;5022868;28;20025;-42
2023/05/03 08:35:24;;;;;;;7.65;1.50;;;;;;;;;;5023011;28;20026;-46
2023/05/03 08:37:50;;;;;;;1.50;1.40;;;;;;;;;;5022447;28;20029;-48
2023/05/03 08:40:15;;;;;;;3.53;1.40;;;;;;;;;;5022941;28;20386;-42
2023/05/03 08:42:42;;;;;;;6.88;1.70;;;;;;;;;;5022858;28;20017;-41
2023/05/03 08:45:14;;;;;;;3.92;1.63;;;;;;;;;;5023444;28;20588;-48
2023/05/03 08:47:40;;;;;;;4.65;1.60;;;;;;;;;;5023029;28;20138;-43
2023/05/03 08:50:08;;;;;;;7.55;2.05;;;;;;;;;;5018317;28;20040;-42
2023/05/03 08:52:34;;;;;;;4.55;2.00;;;;;;;;;;5021440;28;20037;-42
2023/05/03 08:55:00;;;;;;;5.68;2.08;;;;;;;;;;5018805;28;20033;-40
2023/05/03 08:57:26;;;;;;;19.15;2.20;;;;;;;;;;5024116;28;20048;-45
2023/05/03 08:59:53;;;;;;;5.28;1.58;;;;;;;;;;5023701;28;20060;-49
2023/05/03 09:02:19;;;;;;;5.10;1.67;;;;;;;;;;5021270;28;20115;-41
2023/05/03 09:04:44;;;;;;;3.70;1.65;;;;;;;;;;5022246;28;20060;-41
2023/05/03 09:07:11;;;;;;;7.60;2.10;;;;;;;;;;5020207;28;20057;-50
2023/05/03 09:09:37;;;;;;;10.50;1.88;;;;;;;;;;5022368;28;20390;-42
2023/05/03 09:12:03;;;;;;;2.78;1.50;;;;;;;;;;5020656;28;20045;-42
2023/05/03 09:14:29;;;;;;;4.07;1.88;;;;;;;;;;5022146;28;20025;-41
2023/05/03 09:16:54;;;;;;;4.28;1.30;;;;;;;;;;5021226;28;20045;-50
2023/05/03 09:19:20;;;;;;;4.32;1.45;;;;;;;;;;5023822;28;20036;-46
2023/05/03 09:21:46;;;;;;;5.95;1.63;;;;;;;;;;5023919;28;20041;-47
2023/05/03 09:24:21;;;;;;;2.60;1.80;;;;;;;;;;5023962;28;20053;-41
2023/05/03 09:26:48;;;;;;;6.72;1.60;;;;;;;;;;5018975;28;20464;-45
2023/05/03 09:29:31;;;;;;;2.47;1.10;;;;;;;;;;5024912;28;20045;-44
2023/05/03 09:32:01;;;;;;;3.95;1.38;;;;;;;;;;5017458;28;20034;-43
2023/05/03 09:34:27;;;;;;;3.08;1.35;;;;;;;;;;5020895;28;20033;-41
2023/05/03 09:36:53;;;;;;;1.95;1.27;;;;;;;;;;5022369;28;20148;-47
2023/05/03 09:39:19;;;;;;;5.10;1.33;;;;;;;;;;5023913;28;20470;-45
2023/05/03 09:41:45;;;;;;;2.38;1.27;;;;;;;;;;5024774;28;20030;-44
2023/05/03 09:44:11;;;;;;;2.28;1.40;;;;;;;;;;5023067;28;20022;-41
2023/05/03 09:46:37;;;;;;;1.38;1.30;;;;;;;;;;5021745;28;20041;-44
2023/05/03 09:49:03;;;;;;;3.22;1.55;;;;;;;;;;5023504;28;20531;-47
2023/05/03 09:51:30;;;;;;;4.90;1.30;;;;;;;;;;5024191;28;20048;-46
2023/05/03 09:53:57;;;;;;;4.00;1.23;;;;;;;;;;5026629;28;20650;-45
2023/05/03 09:56:25;;;;;;;2.40;1.15;;;;;;;;;;5026927;28;20053;-48
2023/05/03 09:58:51;;;;;;;2.72;1.25;;;;;;;;;;5026715;28;20025;-44
2023/05/03 10:01:17;;;;;;;7.40;1.98;;;;;;;;;;5027082;28;20375;-44
2023/05/03 10:03:49;;;;;;;4.25;1.27;;;;;;;;;;5026238;28;20036;-42
2023/05/03 10:06:25;;;;;;;3.20;1.10;;;;;;;;;;5025604;28;20390;-47
2023/05/03 10:09:05;;;;;;;1.13;1.02;;;;;;;;;;5027227;28;20067;-47
2023/05/03 10:11:35;;;;;;;2.03;1.05;;;;;;;;;;5025181;28;20033;-47
2023/05/03 10:14:00;;;;;;;3.83;1.10;;;;;;;;;;5026630;28;20813;-44
2023/05/03 10:16:30;;;;;;;1.80;1.17;;;;;;;;;;5027058;28;20041;-41
2023/05/03 10:19:08;;;;;;;2.38;1.10;;;;;;;;;;5027834;28;20100;-42
2023/05/03 10:21:53;;;;;;;1.10;1.00;;;;;;;;;;5023543;28;20050;-43
2023/05/03 10:24:18;;;;;;;0.90;0.90;;;;;;;;;;5027491;28;20457;-44
2023/05/03 10:26:46;;;;;;;1.90;1.17;;;;;;;;;;5023470;28;20045;-48
2023/05/03 10:29:36;;;;;;;1.33;1.02;;;;;;;;;;5023934;28;20032;-45
2023/05/03 10:32:05;;;;;;;3.97;1.17;;;;;;;;;;5024027;28;20118;-41
2023/05/03 10:34:34;;;;;;;2.67;1.15;;;;;;;;;;5024450;28;20096;-44
2023/05/03 10:37:02;;;;;;;1.25;1.15;;;;;;;;;;5023113;28;20076;-42
2023/05/03 10:39:28;;;;;;;3.75;1.20;;;;;;;;;;5022043;28;20040;-45
2023/05/03 10:42:06;;;;;;;4.90;1.63;;;;;;;;;;5025536;28;20033;-41
2023/05/03 10:44:48;;;;;;;1.20;1.20;;;;;;;;;;5021709;28;20061;-41
2023/05/03 10:47:21;;;;;;;9.65;1.70;;;;;;;;;;5021642;28;20044;-43
2023/05/03 10:49:46;;;;;;;2.45;1.42;;;;;;;;;;5022039;28;20367;-45
2023/05/03 10:52:37;;;;;;;2.05;1.10;;;;;;;;;;5025424;28;20038;-47
2023/05/03 10:55:09;;;;;;;5.82;1.20;;;;;;;;;;5023784;28;20030;-42
2023/05/03 10:57:36;;;;;;;3.13;2.45;;;;;;;;;;5025376;28;20128;-42
2023/05/03 11:00:07;;;;;;;1.95;1.45;;;;;;;;;;5024759;28;20030;-46
2023/05/03 11:02:37;;;;;;;1.20;1.10;;;;;;;;;;5024609;28;20034;-41
2023/05/03 11:05:07;;;;;;;4.93;1.20;;;;;;;;;;5027981;28;20087;-44
2023/05/03 11:07:33;;;;;;;1.92;1.17;;;;;;;;;;5024869;28;20042;-42
2023/05/03 11:09:58;;;;;;;5.75;1.30;;;;;;;;;;5025635;28;20116;-50
2023/05/03 11:12:24;;;;;;;4.88;1.55;;;;;;;;;;5023300;28;20561;-50
2023/05/03 11:14:50;;;;;;;1.85;0.90;;;;;;;;;;5023252;28;20034;-43
2023/05/03 11:17:15;;;;;;;3.20;1.05;;;;;;;;;;5025152;28;20072;-43
2023/05/03 11:19:43;;;;;;;2.28;1.27;;;;;;;;;;5020835;28;20025;-45
2023/05/03 11:22:08;;;;;;;1.75;1.10;;;;;;;;;;5019306;28;20160;-48
2023/05/03 11:24:34;;;;;;;3.75;1.05;;;;;;;;;;5024711;28;20109;-47
2023/05/03 11:27:00;;;;;;;1.30;1.20;;;;;;;;;;5023087;28;20049;-42
2023/05/03 11:29:26;;;;;;;3.03;1.85;;;;;;;;;;5022774;28;20035;-47
2023/05/03 11:31:52;;;;;;;3.50;1.38;;;;;;;;;;5025474;28;20420;-45
2023/05/03 11:34:17;;;;;;;1.55;1.10;;;;;;;;;;5022852;28;20072;-48
2023/05/03 11:36:43;;;;;;;1.40;1.30;;;;;;;;;;5023660;28;20560;-48
2023/05/03 11:39:10;;;;;;;5.40;1.13;;;;;;;;;;5023585;28;20312;-44
2023/05/03 11:41:36;;;;;;;5.60;1.23;;;;;;;;;;5023638;28;20025;-49
2023/05/03 11:44:02;;;;;;;4.40;1.20;;;;;;;;;;5020466;28;20044;-44
2023/05/03 11:46:32;;;;;;;1.20;1.02;;;;;;;;;;5022676;28;20041;-47
2023/05/03 11:48:57;;;;;;;1.42;1.20;;;;;;;;;;5024379;28;20477;-42
2023/05/03 11:51:24;;;;;;;1.50;1.10;;;;;;;;;;5022446;28;20045;-45
2023/05/03 11:53:50;;;;;;;3.20;1.20;;;;;;;;;;5020823;28;20477;-45
2023/05/03 11:56:19;;;;;;;2.40;1.30;;;;;;;;;;5021328;28;20121;-46
2023/05/03 11:58:58;;;;;;;4.97;0.82;;;;;;;;;;5019694;28;20121;-50
2023/05/03 12:01:25;;;;;;;1.48;1.10;;;;;;;;;;5021047;28;20534;-45
2023/05/03 12:03:58;;;;;;;0.88;0.88;;;;;;;;;;5024351;28;20441;-46
2023/05/03 12:06:23;;;;;;;1.40;0.82;;;;;;;;;;5023062;28;20044;-41
2023/05/03 12:08:49;;;;;;;4.13;1.23;;;;;;;;;;5020768;28;20631;-43
2023/05/03 12:11:14;;;;;;;8.10;1.15;;;;;;;;;;5022326;28;20100;-44
2023/05/03 12:13:40;;;;;;;7.13;1.50;;;;;;;;;;5024057;28;20029;-47
2023/05/03 12:16:08;;;;;;;2.88;1.02;;;;;;;;;;5021467;28;20083;-44
2023/05/03 12:18:55;;;;;;;4.82;1.30;;;;;;;;;;5021146;28;20743;-44
2023/05/03 12:21:23;;;;;;;5.53;1.13;;;;;;;;;;5022785;28;20060;-44
2023/05/03 12:23:50;;;;;;;4.10;1.40;;;;;;;;;;5023875;28;20386;-48
2023/05/03 12:26:18;;;;;;;13.60;1.58;;;;;;;;;;5017532;28;20046;-49
2023/05/03 12:28:46;;;;;;;2.00;1.20;;;;;;;;;;5017876;28;20034;-47
2023/05/03 12:31:11;;;;;;;8.75;1.38;;;;;;;;;;5023498;28;20067;-47
2023/05/03 12:33:37;;;;;;;2.25;1.13;;;;;;;;;;5024602;28;20110;-48
2023/05/03 12:36:03;;;;;;;6.65;1.85;;;;;;;;;;5023562;28;20057;-45
2023/05/03 12:38:29;;;;;;;1.63;0.90;;;;;;;;;;5026024;28;20029;-49
2023/05/03 12:40:54;;;;;;;2.30;1.08;;;;;;;;;;5023255;28;20038;-44
2023/05/03 12:43:20;;;;;;;3.05;1.23;;;;;;;;;;5019317;28;20060;-43
2023/05/03 12:45:45;;;;;;;4.30;1.00;;;;;;;;;;5025267;28;20445;-44
2023/05/03 12:48:11;;;;;;;6.85;1.15;;;;;;;;;;5022236;28;20036;-41
2023/05/03 12:50:37;;;;;;;4.82;1.10;;;;;;;;;;5022486;28;20045;-43
2023/05/03 12:53:02;;;;;;;5.90;1.25;;;;;;;;;;5023891;28;20025;-43
2023/05/03 12:55:32;;;;;;;4.65;1.30;;;;;;;;;;5023223;28;20029;-41
2023/05/03 12:57:58;;;;;;;5.07;1.33;;;;;;;;;;5022335;28;20107;-41
2023/05/03 13:00:24;;;;;;;5.97;1.17;;;;;;;;;;5021863;28;20466;-44
2023/05/03 13:02:50;;;;;;;6.75;1.30;;;;;;;;;;5025283;28;20052;-40
2023/05/03 13:05:15;;;;;;;4.78;1.10;;;;;;;;;;5019843;28;20025;-40
2023/05/03 13:07:42;;;;;;;5.18;1.55;;;;;;;;;;5022644;28;20410;-42
2023/05/03 13:10:08;;;;;;;5.55;1.02;;;;;;;;;;5023716;28;20121;-41
2023/05/03 13:12:35;;;;;;;7.50;1.27;;;;;;;;;;5022146;28;20145;-43
2023/05/03 13:15:02;;;;;;;4.15;1.15;;;;;;;;;;5021456;28;20029;-41
2023/05/03 13:17:29;;;;;;;8.95;1.27;;;;;;;;;;5019716;28;20040;-42
2023/05/03 13:19:54;;;;;;;5.05;1.10;;;;;;;;;;5024002;28;20033;-40
2023/05/03 13:22:20;;;;;;;4.78;1.25;;;;;;;;;;5021015;28;20406;-45
2023/05/03 13:24:46;;;;;;;6.57;1.10;;;;;;;;;;5022504;28;20050;-41
2023/05/03 13:27:12;;;;;;;3.05;1.05;;;;;;;;;;5020258;28;20073;-45
2023/05/03 13:29:38;;;;;;;7.00;1.30;;;;;;;;;;5024145;28;20033;-45
2023/05/03 13:32:04;;;;;;;8.27;1.65;;;;;;;;;;5021355;28;20116;-41
2023/05/03 13:34:30;;;;;;;6.70;1.23;;;;;;;;;;5020429;28;20037;-41
2023/05/03 13:36:55;;;;;;;5.00;1.45;;;;;;;;;;5022330;28;20049;-41
2023/05/03 13:39:21;;;;;;;7.40;1.40;;;;;;;;;;5022863;28;20021;-41
2023/05/03 13:41:47;;;;;;;8.98;1.50;;;;;;;;;;5020259;28;20076;-41
2023/05/03 13:44:12;;;;;;;6.28;1.40;;;;;;;;;;5020194;28;20064;-42
2023/05/03 13:46:39;;;;;;;2.25;0.93;;;;;;;;;;5022937;28;20041;-42
2023/05/03 13:49:06;;;;;;;4.45;1.38;;;;;;;;;;5022515;28;20662;-41
2023/05/03 13:51:32;;;;;;;6.88;1.60;;;;;;;;;;5023954;28;20153;-43
2023/05/03 13:54:01;;;;;;;5.95;1.40;;;;;;;;;;5022490;28;20036;-43
2023/05/03 13:56:27;;;;;;;7.22;1.75;;;;;;;;;;5019289;28;20037;-41
2023/05/03 13:58:56;;;;;;;4.60;1.20;;;;;;;;;;5020510;28;20030;-43
2023/05/03 14:01:28;;;;;;;13.68;1.50;;;;;;;;;;5022644;28;20049;-42
2023/05/03 14:03:54;;;;;;;7.38;2.38;;;;;;;;;;5022160;28;20108;-41
2023/05/03 14:06:20;;;;;;;8.43;1.60;;;;;;;;;;5022148;28;20450;-45
2023/05/03 14:08:46;;;;;;;9.55;1.90;;;;;;;;;;5020967;28;20057;-41
2023/05/03 14:11:16;;;;;;;7.72;1.50;;;;;;;;;;5015637;28;20482;-46
2023/05/03 14:13:42;;;;;;;14.55;2.40;;;;;;;;;;5021404;28;20018;-45
2023/05/03 14:16:15;;;;;;;9.02;1.42;;;;;;;;;;5021285;28;20470;-41
2023/05/03 14:18:41;;;;;;;7.22;1.98;;;;;;;;;;5018060;28;21469;-41
2023/05/03 14:21:06;;;;;;;9.13;2.08;;;;;;;;;;5019888;28;20038;-44
2023/05/03 14:23:32;;;;;;;12.45;1.38;;;;;;;;;;5019805;28;20036;-41
2023/05/03 14:25:57;;;;;;;1.42;1.17;;;;;;;;;;5018164;28;20040;-42
2023/05/03 14:28:22;;;;;;;4.90;1.58;;;;;;;;;;5022689;28;20505;-41
2023/05/03 14:30:48;;;;;;;8.45;1.65;;;;;;;;;;5019332;28;20068;-42
2023/05/03 14:33:13;;;;;;;7.30;1.70;;;;;;;;;;5022340;28;20037;-44
2023/05/03 14:35:39;;;;;;;2.65;1.40;;;;;;;;;;5021066;28;20041;-42
2023/05/03 14:38:05;;;;;;;2.45;1.35;;;;;;;;;;5020465;28;20033;-42
2023/05/03 14:40:30;;;;;;;7.57;1.50;;;;;;;;;;5024053;28;20056;-45
2023/05/03 14:42:56;;;;;;;13.77;1.58;;;;;;;;;;5021996;28;21482;-41